sensor_id;sensor_type;location;lat;lon;timestamp;pressure;altitude;pressure_sealevel;temperature;humidity
23303;BME280;11820;48.738;9.092;2023-02-04T00:01:19;97475.34;;;7.14;nan
23303;BME280;11820;48.738;9.092;2023-02-04T00:03:44;97481.00;;;7.18;nan
23303;BME280;11820;48.738;9.092;2023-02-04T00:06:09;97479.66;;;7.14;nan
23303;BME280;11820;48.738;9.092;2023-02-04T00:08:35;97478.97;;;7.12;nan
23303;BME280;11820;48.738;9.092;2023-02-04T00:11:02;97477.53;;;7.09;nan
23303;BME280;11820;48.738;9.092;2023-02-04T00:13:27;97469.38;;;7.14;nan
23303;BME280;11820;48.738;9.092;2023-02-04T00:15:52;97467.25;;;7.09;nan
23303;BME280;11820;48.738;9.092;2023-02-04T00:18:17;97463.13;;;7.16;nan
23303;BME280;11820;48.738;9.092;2023-02-04T00:20:43;97462.09;;;7.09;nan
23303;BME280;11820;48.738;9.092;2023-02-04T00:23:08;97460.44;;;7.18;nan
23303;BME280;11820;48.738;9.092;2023-02-04T00:25:33;97441.53;;;7.09;nan
23303;BME280;11820;48.738;9.092;2023-02-04T00:27:59;97457.75;;;7.10;nan
23303;BME280;11820;48.738;9.092;2023-02-04T00:30:25;97469.16;;;7.07;nan
23303;BME280;11820;48.738;9.092;2023-02-04T00:32:51;97463.72;;;7.10;nan
23303;BME280;11820;48.738;9.092;2023-02-04T00:35:19;97471.06;;;7.05;nan
23303;BME280;11820;48.738;9.092;2023-02-04T00:37:44;97467.91;;;7.11;nan
23303;BME280;11820;48.738;9.092;2023-02-04T00:40:10;97469.94;;;7.08;nan
23303;BME280;11820;48.738;9.092;2023-02-04T00:42:36;97478.56;;;7.16;nan
23303;BME280;11820;48.738;9.092;2023-02-04T00:45:01;97477.31;;;7.20;nan
23303;BME280;11820;48.738;9.092;2023-02-04T00:47:27;97482.75;;;7.17;nan
23303;BME280;11820;48.738;9.092;2023-02-04T00:49:52;97482.09;;;7.15;nan
23303;BME280;11820;48.738;9.092;2023-02-04T00:52:17;97488.84;;;7.16;nan
23303;BME280;11820;48.738;9.092;2023-02-04T00:54:43;97477.31;;;7.20;nan
23303;BME280;11820;48.738;9.092;2023-02-04T00:57:08;97479.59;;;7.23;nan
23303;BME280;11820;48.738;9.092;2023-02-04T00:59:33;97483.72;;;7.16;nan
23303;BME280;11820;48.738;9.092;2023-02-04T01:01:59;97489.44;;;7.10;nan
23303;BME280;11820;48.738;9.092;2023-02-04T01:04:24;97493.34;;;7.14;nan
23303;BME280;11820;48.738;9.092;2023-02-04T01:06:50;97486.28;;;7.16;nan
23303;BME280;11820;48.738;9.092;2023-02-04T01:09:15;97489.81;;;7.15;nan
23303;BME280;11820;48.738;9.092;2023-02-04T01:11:41;97490.75;;;7.14;nan
23303;BME280;11820;48.738;9.092;2023-02-04T01:14:06;97494.00;;;7.16;nan
23303;BME280;11820;48.738;9.092;2023-02-04T01:16:31;97501.19;;;7.13;nan
23303;BME280;11820;48.738;9.092;2023-02-04T01:18:57;97503.25;;;7.09;nan
23303;BME280;11820;48.738;9.092;2023-02-04T01:21:23;97495.50;;;7.19;nan
23303;BME280;11820;48.738;9.092;2023-02-04T01:23:48;97499.13;;;7.16;nan
23303;BME280;11820;48.738;9.092;2023-02-04T01:26:15;97493.25;;;7.06;nan
23303;BME280;11820;48.738;9.092;2023-02-04T01:28:40;97498.66;;;7.03;nan
23303;BME280;11820;48.738;9.092;2023-02-04T01:31:05;97503.53;;;7.06;nan
23303;BME280;11820;48.738;9.092;2023-02-04T01:33:30;97493.25;;;7.06;nan
23303;BME280;11820;48.738;9.092;2023-02-04T01:35:56;97503.41;;;6.98;nan
23303;BME280;11820;48.738;9.092;2023-02-04T01:38:22;97515.03;;;7.02;nan
23303;BME280;11820;48.738;9.092;2023-02-04T01:40:47;97515.03;;;7.02;nan
23303;BME280;11820;48.738;9.092;2023-02-04T01:43:12;97512.34;;;6.94;nan
23303;BME280;11820;48.738;9.092;2023-02-04T01:45:38;97516.34;;;6.79;nan
23303;BME280;11820;48.738;9.092;2023-02-04T01:48:05;97529.28;;;6.87;nan
23303;BME280;11820;48.738;9.092;2023-02-04T01:50:32;97529.00;;;6.90;nan
23303;BME280;11820;48.738;9.092;2023-02-04T01:52:58;97523.09;;;6.80;nan
23303;BME280;11820;48.738;9.092;2023-02-04T01:55:26;97523.66;;;6.65;nan
23303;BME280;11820;48.738;9.092;2023-02-04T01:57:52;97525.13;;;6.67;nan
23303;BME280;11820;48.738;9.092;2023-02-04T02:00:23;97524.47;;;6.65;nan
23303;BME280;11820;48.738;9.092;2023-02-04T02:02:51;97523.13;;;6.52;nan
23303;BME280;11820;48.738;9.092;2023-02-04T02:05:22;97525.69;;;6.52;nan
23303;BME280;11820;48.738;9.092;2023-02-04T02:07:50;97537.75;;;6.33;nan
23303;BME280;11820;48.738;9.092;2023-02-04T02:10:17;97528.72;;;6.29;nan
23303;BME280;11820;48.738;9.092;2023-02-04T02:12:44;97529.91;;;6.25;nan
23303;BME280;11820;48.738;9.092;2023-02-04T02:15:11;97517.88;;;6.35;nan
23303;BME280;11820;48.738;9.092;2023-02-04T02:17:38;97535.31;;;6.22;nan
23303;BME280;11820;48.738;9.092;2023-02-04T02:20:10;97533.16;;;6.27;nan
23303;BME280;11820;48.738;9.092;2023-02-04T02:25:26;97545.47;;;6.33;nan
23303;BME280;11820;48.738;9.092;2023-02-04T02:27:51;97545.75;;;6.30;nan
23303;BME280;11820;48.738;9.092;2023-02-04T02:30:18;97536.25;;;6.21;nan
23303;BME280;11820;48.738;9.092;2023-02-04T02:32:48;97548.81;;;6.24;nan
23303;BME280;11820;48.738;9.092;2023-02-04T02:35:15;97546.69;;;6.29;nan
23303;BME280;11820;48.738;9.092;2023-02-04T02:37:41;97543.44;;;6.27;nan
23303;BME280;11820;48.738;9.092;2023-02-04T02:40:07;97548.03;;;6.33;nan
23303;BME280;11820;48.738;9.092;2023-02-04T02:42:33;97559.91;;;6.24;nan
23303;BME280;11820;48.738;9.092;2023-02-04T02:45:20;97572.09;;;6.22;nan
23303;BME280;11820;48.738;9.092;2023-02-04T02:47:46;97576.25;;;6.14;nan
23303;BME280;11820;48.738;9.092;2023-02-04T02:50:15;97575.31;;;6.15;nan
23303;BME280;11820;48.738;9.092;2023-02-04T02:52:41;97574.94;;;6.19;nan
23303;BME280;11820;48.738;9.092;2023-02-04T02:55:13;97562.88;;;6.10;nan
23303;BME280;11820;48.738;9.092;2023-02-04T02:57:39;97568.41;;;6.25;nan
23303;BME280;11820;48.738;9.092;2023-02-04T03:02:51;97557.34;;;6.24;nan
23303;BME280;11820;48.738;9.092;2023-02-04T03:05:17;97570.19;;;6.15;nan
23303;BME280;11820;48.738;9.092;2023-02-04T03:07:43;97553.00;;;6.25;nan
23303;BME280;11820;48.738;9.092;2023-02-04T03:10:08;97561.66;;;6.24;nan
23303;BME280;11820;48.738;9.092;2023-02-04T03:12:33;97559.53;;;6.19;nan
23303;BME280;11820;48.738;9.092;2023-02-04T03:14:59;97563.72;;;6.20;nan
23303;BME280;11820;48.738;9.092;2023-02-04T03:17:24;97560.47;;;6.28;nan
23303;BME280;11820;48.738;9.092;2023-02-04T03:19:49;97572.63;;;6.26;nan
23303;BME280;11820;48.738;9.092;2023-02-04T03:22:15;97581.41;;;6.33;nan
23303;BME280;11820;48.738;9.092;2023-02-04T03:24:40;97582.88;;;6.35;nan
23303;BME280;11820;48.738;9.092;2023-02-04T03:27:06;97586.97;;;6.38;nan
23303;BME280;11820;48.738;9.092;2023-02-04T03:29:31;97603.97;;;6.29;nan
23303;BME280;11820;48.738;9.092;2023-02-04T03:31:57;97611.84;;;6.28;nan
23303;BME280;11820;48.738;9.092;2023-02-04T03:34:24;97612.50;;;6.30;nan
23303;BME280;11820;48.738;9.092;2023-02-04T03:36:49;97615.34;;;6.36;nan
23303;BME280;11820;48.738;9.092;2023-02-04T03:39:15;97618.44;;;6.21;nan
23303;BME280;11820;48.738;9.092;2023-02-04T03:41:40;97614.50;;;6.17;nan
23303;BME280;11820;48.738;9.092;2023-02-04T03:44:05;97624.00;;;6.26;nan
23303;BME280;11820;48.738;9.092;2023-02-04T03:46:30;97622.09;;;6.18;nan
23303;BME280;11820;48.738;9.092;2023-02-04T03:48:56;97626.41;;;6.18;nan
23303;BME280;11820;48.738;9.092;2023-02-04T03:51:21;97636.53;;;6.10;nan
23303;BME280;11820;48.738;9.092;2023-02-04T03:53:46;97621.00;;;6.21;nan
23303;BME280;11820;48.738;9.092;2023-02-04T03:56:12;97627.34;;;6.17;nan
23303;BME280;11820;48.738;9.092;2023-02-04T03:58:37;97623.16;;;6.16;nan
23303;BME280;11820;48.738;9.092;2023-02-04T04:01:02;97633.69;;;6.13;nan
23303;BME280;11820;48.738;9.092;2023-02-04T04:03:27;97630.72;;;6.08;nan
23303;BME280;11820;48.738;9.092;2023-02-04T04:05:53;97631.25;;;6.21;nan
23303;BME280;11820;48.738;9.092;2023-02-04T04:08:18;97636.00;;;6.16;nan
23303;BME280;11820;48.738;9.092;2023-02-04T04:10:43;97635.31;;;6.14;nan
23303;BME280;11820;48.738;9.092;2023-02-04T04:13:09;97636.81;;;6.16;nan
23303;BME280;11820;48.738;9.092;2023-02-04T04:15:34;97629.63;;;6.20;nan
23303;BME280;11820;48.738;9.092;2023-02-04T04:17:59;97642.59;;;6.09;nan
23303;BME280;11820;48.738;9.092;2023-02-04T04:20:25;97638.56;;;6.16;nan
23303;BME280;11820;48.738;9.092;2023-02-04T04:22:52;97640.16;;;6.07;nan
23303;BME280;11820;48.738;9.092;2023-02-04T04:25:17;97643.97;;;6.13;nan
23303;BME280;11820;48.738;9.092;2023-02-04T04:27:43;97652.75;;;6.20;nan
23303;BME280;11820;48.738;9.092;2023-02-04T04:30:09;97654.38;;;6.21;nan
23303;BME280;11820;48.738;9.092;2023-02-04T04:32:35;97650.72;;;6.14;nan
23303;BME280;11820;48.738;9.092;2023-02-04T04:35:00;97659.25;;;6.24;nan
23303;BME280;11820;48.738;9.092;2023-02-04T04:37:25;97666.72;;;6.27;nan
23303;BME280;11820;48.738;9.092;2023-02-04T04:39:51;97676.44;;;6.33;nan
23303;BME280;11820;48.738;9.092;2023-02-04T04:42:16;97669.97;;;6.29;nan
23303;BME280;11820;48.738;9.092;2023-02-04T04:44:41;97669.81;;;6.39;nan
23303;BME280;11820;48.738;9.092;2023-02-04T04:47:07;97673.22;;;6.40;nan
23303;BME280;11820;48.738;9.092;2023-02-04T04:49:32;97674.69;;;6.42;nan
23303;BME280;11820;48.738;9.092;2023-02-04T04:51:57;97675.59;;;6.23;nan
23303;BME280;11820;48.738;9.092;2023-02-04T04:54:23;97679.78;;;6.14;nan
23303;BME280;11820;48.738;9.092;2023-02-04T04:56:48;97679.09;;;6.22;nan
23303;BME280;11820;48.738;9.092;2023-02-04T04:59:13;97665.56;;;6.10;nan
23303;BME280;11820;48.738;9.092;2023-02-04T05:01:38;97662.06;;;6.11;nan
23303;BME280;11820;48.738;9.092;2023-02-04T05:04:04;97667.91;;;6.23;nan
23303;BME280;11820;48.738;9.092;2023-02-04T05:06:29;97661.00;;;6.14;nan
23303;BME280;11820;48.738;9.092;2023-02-04T05:08:54;97660.19;;;6.13;nan
23303;BME280;11820;48.738;9.092;2023-02-04T05:11:20;97665.31;;;6.23;nan
23303;BME280;11820;48.738;9.092;2023-02-04T05:13:46;97658.78;;;6.00;nan
23303;BME280;11820;48.738;9.092;2023-02-04T05:16:12;97661.53;;;6.08;nan
23303;BME280;11820;48.738;9.092;2023-02-04T05:18:40;97657.59;;;6.04;nan
23303;BME280;11820;48.738;9.092;2023-02-04T05:21:06;97659.50;;;6.02;nan
23303;BME280;11820;48.738;9.092;2023-02-04T05:23:32;97661.22;;;6.01;nan
23303;BME280;11820;48.738;9.092;2023-02-04T05:25:58;97674.31;;;5.98;nan
23303;BME280;11820;48.738;9.092;2023-02-04T05:28:23;97671.00;;;6.17;nan
23303;BME280;11820;48.738;9.092;2023-02-04T05:30:48;97678.31;;;6.21;nan
23303;BME280;11820;48.738;9.092;2023-02-04T05:33:14;97675.09;;;6.29;nan
23303;BME280;11820;48.738;9.092;2023-02-04T05:35:39;97680.63;;;6.34;nan
23303;BME280;11820;48.738;9.092;2023-02-04T05:38:04;97684.28;;;6.31;nan
23303;BME280;11820;48.738;9.092;2023-02-04T05:40:30;97682.50;;;6.22;nan
23303;BME280;11820;48.738;9.092;2023-02-04T05:42:55;97684.81;;;6.25;nan
23303;BME280;11820;48.738;9.092;2023-02-04T05:45:20;97689.00;;;6.26;nan
23303;BME280;11820;48.738;9.092;2023-02-04T05:47:46;97691.28;;;6.20;nan
23303;BME280;11820;48.738;9.092;2023-02-04T05:50:11;97694.94;;;6.17;nan
23303;BME280;11820;48.738;9.092;2023-02-04T05:52:37;97692.91;;;6.21;nan
23303;BME280;11820;48.738;9.092;2023-02-04T05:55:03;97687.50;;;6.24;nan
23303;BME280;11820;48.738;9.092;2023-02-04T05:57:28;97687.22;;;6.17;nan
23303;BME280;11820;48.738;9.092;2023-02-04T05:59:53;97695.19;;;6.24;nan
23303;BME280;11820;48.738;9.092;2023-02-04T06:02:19;97698.03;;;6.21;nan
23303;BME280;11820;48.738;9.092;2023-02-04T06:04:44;97697.75;;;6.24;nan
23303;BME280;11820;48.738;9.092;2023-02-04T06:07:09;97701.53;;;6.20;nan
23303;BME280;11820;48.738;9.092;2023-02-04T06:09:35;97699.00;;;6.29;nan
23303;BME280;11820;48.738;9.092;2023-02-04T06:12:00;97710.09;;;6.30;nan
23303;BME280;11820;48.738;9.092;2023-02-04T06:14:25;97707.78;;;6.17;nan
23303;BME280;11820;48.738;9.092;2023-02-04T06:16:50;97718.53;;;6.02;nan
23303;BME280;11820;48.738;9.092;2023-02-04T06:19:16;97719.88;;;6.06;nan
23303;BME280;11820;48.738;9.092;2023-02-04T06:21:41;97724.41;;;5.93;nan
23303;BME280;11820;48.738;9.092;2023-02-04T06:24:07;97731.38;;;6.02;nan
23303;BME280;11820;48.738;9.092;2023-02-04T06:26:32;97738.13;;;6.03;nan
23303;BME280;11820;48.738;9.092;2023-02-04T06:28:57;97736.66;;;6.10;nan
23303;BME280;11820;48.738;9.092;2023-02-04T06:31:23;97742.72;;;6.09;nan
23303;BME280;11820;48.738;9.092;2023-02-04T06:33:48;97739.22;;;6.10;nan
23303;BME280;11820;48.738;9.092;2023-02-04T06:36:13;97739.28;;;5.99;nan
23303;BME280;11820;48.738;9.092;2023-02-04T06:38:39;97744.19;;;6.02;nan
23303;BME280;11820;48.738;9.092;2023-02-04T06:41:04;97757.84;;;6.02;nan
23303;BME280;11820;48.738;9.092;2023-02-04T06:43:29;97750.84;;;6.14;nan
23303;BME280;11820;48.738;9.092;2023-02-04T06:45:55;97764.53;;;6.14;nan
23303;BME280;11820;48.738;9.092;2023-02-04T06:48:20;97754.47;;;6.02;nan
23303;BME280;11820;48.738;9.092;2023-02-04T06:50:45;97761.19;;;5.93;nan
23303;BME280;11820;48.738;9.092;2023-02-04T06:53:11;97764.38;;;5.86;nan
23303;BME280;11820;48.738;9.092;2023-02-04T06:55:36;97757.66;;;5.94;nan
23303;BME280;11820;48.738;9.092;2023-02-04T06:58:01;97759.50;;;5.83;nan
23303;BME280;11820;48.738;9.092;2023-02-04T07:00:27;97771.13;;;5.87;nan
23303;BME280;11820;48.738;9.092;2023-02-04T07:02:52;97775.50;;;5.96;nan
23303;BME280;11820;48.738;9.092;2023-02-04T07:05:18;97779.78;;;5.86;nan
23303;BME280;11820;48.738;9.092;2023-02-04T07:07:43;97785.34;;;5.91;nan
23303;BME280;11820;48.738;9.092;2023-02-04T07:10:08;97784.19;;;6.04;nan
23303;BME280;11820;48.738;9.092;2023-02-04T07:12:34;97780.72;;;6.15;nan
23303;BME280;11820;48.738;9.092;2023-02-04T07:14:59;97787.19;;;6.09;nan
23303;BME280;11820;48.738;9.092;2023-02-04T07:17:25;97796.47;;;6.01;nan
23303;BME280;11820;48.738;9.092;2023-02-04T07:19:50;97792.63;;;6.16;nan
23303;BME280;11820;48.738;9.092;2023-02-04T07:22:17;97806.28;;;5.96;nan
23303;BME280;11820;48.738;9.092;2023-02-04T07:24:42;97820.91;;;5.95;nan
23303;BME280;11820;48.738;9.092;2023-02-04T07:27:07;97829.34;;;6.07;nan
23303;BME280;11820;48.738;9.092;2023-02-04T07:29:33;97818.38;;;6.05;nan
23303;BME280;11820;48.738;9.092;2023-02-04T07:31:58;97825.84;;;6.08;nan
23303;BME280;11820;48.738;9.092;2023-02-04T07:34:23;97816.63;;;6.05;nan
23303;BME280;11820;48.738;9.092;2023-02-04T07:36:49;97813.81;;;5.88;nan
23303;BME280;11820;48.738;9.092;2023-02-04T07:39:14;97822.22;;;5.90;nan
23303;BME280;11820;48.738;9.092;2023-02-04T07:41:39;97824.53;;;5.93;nan
23303;BME280;11820;48.738;9.092;2023-02-04T07:44:05;97828.03;;;5.92;nan
23303;BME280;11820;48.738;9.092;2023-02-04T07:46:30;97827.03;;;5.83;nan
23303;BME280;11820;48.738;9.092;2023-02-04T07:48:55;97827.66;;;5.76;nan
23303;BME280;11820;48.738;9.092;2023-02-04T07:51:21;97834.19;;;5.69;nan
23303;BME280;11820;48.738;9.092;2023-02-04T07:53:46;97822.19;;;5.69;nan
23303;BME280;11820;48.738;9.092;2023-02-04T07:56:11;97831.19;;;5.64;nan
23303;BME280;11820;48.738;9.092;2023-02-04T07:58:37;97841.53;;;5.73;nan
23303;BME280;11820;48.738;9.092;2023-02-04T08:01:02;97848.38;;;5.84;nan
23303;BME280;11820;48.738;9.092;2023-02-04T08:03:27;97855.00;;;5.86;nan
23303;BME280;11820;48.738;9.092;2023-02-04T08:05:53;97858.28;;;5.77;nan
23303;BME280;11820;48.738;9.092;2023-02-04T08:08:19;97856.56;;;5.78;nan
23303;BME280;11820;48.738;9.092;2023-02-04T08:10:44;97860.84;;;5.88;nan
23303;BME280;11820;48.738;9.092;2023-02-04T08:13:09;97858.66;;;5.84;nan
23303;BME280;11820;48.738;9.092;2023-02-04T08:15:35;97873.78;;;5.87;nan
23303;BME280;11820;48.738;9.092;2023-02-04T08:18:00;97873.09;;;5.85;nan
23303;BME280;11820;48.738;9.092;2023-02-04T08:20:26;97861.41;;;5.92;nan
23303;BME280;11820;48.738;9.092;2023-02-04T08:22:51;97868.09;;;5.83;nan
23303;BME280;11820;48.738;9.092;2023-02-04T08:25:16;97869.09;;;5.92;nan
23303;BME280;11820;48.738;9.092;2023-02-04T08:27:42;97874.66;;;5.97;nan
23303;BME280;11820;48.738;9.092;2023-02-04T08:30:08;97876.84;;;6.01;nan
23303;BME280;11820;48.738;9.092;2023-02-04T08:32:34;97878.28;;;6.15;nan
23303;BME280;11820;48.738;9.092;2023-02-04T08:34:59;97879.56;;;6.20;nan
23303;BME280;11820;48.738;9.092;2023-02-04T08:37:25;97881.50;;;6.37;nan
23303;BME280;11820;48.738;9.092;2023-02-04T08:39:51;97880.47;;;6.39;nan
23303;BME280;11820;48.738;9.092;2023-02-04T08:42:16;97883.19;;;6.38;nan
23303;BME280;11820;48.738;9.092;2023-02-04T08:44:42;97881.66;;;6.36;nan
23303;BME280;11820;48.738;9.092;2023-02-04T08:47:08;97888.25;;;6.58;nan
23303;BME280;11820;48.738;9.092;2023-02-04T08:49:34;97887.63;;;6.75;nan
23303;BME280;11820;48.738;9.092;2023-02-04T08:52:00;97880.56;;;6.98;nan
23303;BME280;11820;48.738;9.092;2023-02-04T08:54:27;97886.69;;;7.06;nan
23303;BME280;11820;48.738;9.092;2023-02-04T08:56:52;97891.13;;;7.04;nan
23303;BME280;11820;48.738;9.092;2023-02-04T08:59:18;97896.84;;;7.17;nan
23303;BME280;11820;48.738;9.092;2023-02-04T09:01:43;97899.31;;;7.28;nan
23303;BME280;11820;48.738;9.092;2023-02-04T09:04:13;97902.19;;;7.63;nan
23303;BME280;11820;48.738;9.092;2023-02-04T09:06:38;97908.00;;;7.46;nan
23303;BME280;11820;48.738;9.092;2023-02-04T09:09:03;97908.00;;;7.65;nan
23303;BME280;11820;48.738;9.092;2023-02-04T09:11:28;97907.88;;;7.76;nan
23303;BME280;11820;48.738;9.092;2023-02-04T09:13:54;97911.53;;;8.02;nan
23303;BME280;11820;48.738;9.092;2023-02-04T09:16:21;97917.53;;;8.21;nan
23303;BME280;11820;48.738;9.092;2023-02-04T09:18:46;97915.59;;;7.95;nan
23303;BME280;11820;48.738;9.092;2023-02-04T09:21:12;97926.84;;;7.75;nan
23303;BME280;11820;48.738;9.092;2023-02-04T09:23:37;97920.75;;;7.86;nan
23303;BME280;11820;48.738;9.092;2023-02-04T09:26:02;97936.31;;;7.56;nan
23303;BME280;11820;48.738;9.092;2023-02-04T09:28:30;97934.84;;;7.72;nan
23303;BME280;11820;48.738;9.092;2023-02-04T09:30:55;97940.25;;;7.69;nan
23303;BME280;11820;48.738;9.092;2023-02-04T09:33:21;97947.47;;;7.66;nan
23303;BME280;11820;48.738;9.092;2023-02-04T09:35:47;97952.81;;;7.34;nan
23303;BME280;11820;48.738;9.092;2023-02-04T09:38:13;97954.25;;;7.27;nan
23303;BME280;11820;48.738;9.092;2023-02-04T09:40:43;97953.88;;;7.32;nan
23303;BME280;11820;48.738;9.092;2023-02-04T09:43:25;97960.13;;;7.29;nan
23303;BME280;11820;48.738;9.092;2023-02-04T09:45:52;97964.25;;;7.11;nan
23303;BME280;11820;48.738;9.092;2023-02-04T09:48:18;97972.97;;;7.29;nan
23303;BME280;11820;48.738;9.092;2023-02-04T09:50:45;97983.47;;;7.07;nan
23303;BME280;11820;48.738;9.092;2023-02-04T09:53:13;97974.84;;;7.18;nan
23303;BME280;11820;48.738;9.092;2023-02-04T09:55:42;97985.19;;;7.46;nan
23303;BME280;11820;48.738;9.092;2023-02-04T09:58:16;97983.03;;;7.51;nan
23303;BME280;11820;48.738;9.092;2023-02-04T10:00:43;97979.78;;;7.49;nan
23303;BME280;11820;48.738;9.092;2023-02-04T10:03:17;97982.25;;;7.11;nan
23303;BME280;11820;48.738;9.092;2023-02-04T10:05:44;97981.00;;;7.06;nan
23303;BME280;11820;48.738;9.092;2023-02-04T10:08:15;97967.53;;;7.23;nan
23303;BME280;11820;48.738;9.092;2023-02-04T10:10:42;97970.34;;;7.59;nan
23303;BME280;11820;48.738;9.092;2023-02-04T10:13:17;97967.41;;;8.11;nan
23303;BME280;11820;48.738;9.092;2023-02-04T10:15:44;97974.13;;;8.59;nan
23303;BME280;11820;48.738;9.092;2023-02-04T10:18:11;97970.09;;;8.47;nan
23303;BME280;11820;48.738;9.092;2023-02-04T10:20:37;97975.34;;;9.11;nan
23303;BME280;11820;48.738;9.092;2023-02-04T10:23:02;97970.31;;;9.09;nan
23303;BME280;11820;48.738;9.092;2023-02-04T10:25:27;97977.91;;;8.84;nan
23303;BME280;11820;48.738;9.092;2023-02-04T10:27:58;97970.88;;;7.72;nan
23303;BME280;11820;48.738;9.092;2023-02-04T10:30:27;97978.59;;;7.63;nan
23303;BME280;11820;48.738;9.092;2023-02-04T10:32:54;97984.38;;;7.36;nan
23303;BME280;11820;48.738;9.092;2023-02-04T10:35:20;97970.50;;;7.18;nan
23303;BME280;11820;48.738;9.092;2023-02-04T10:37:46;97971.88;;;7.32;nan
23303;BME280;11820;48.738;9.092;2023-02-04T10:40:42;97985.38;;;7.24;nan
23303;BME280;11820;48.738;9.092;2023-02-04T10:43:17;97973.84;;;7.09;nan
23303;BME280;11820;48.738;9.092;2023-02-04T10:45:53;97977.06;;;7.02;nan
23303;BME280;11820;48.738;9.092;2023-02-04T10:48:21;97975.84;;;7.06;nan
23303;BME280;11820;48.738;9.092;2023-02-04T10:50:47;97975.06;;;7.05;nan
23303;BME280;11820;48.738;9.092;2023-02-04T10:53:21;97970.41;;;6.99;nan
23303;BME280;11820;48.738;9.092;2023-02-04T10:56:15;97970.94;;;6.93;nan
23303;BME280;11820;48.738;9.092;2023-02-04T10:58:40;97974.19;;;6.95;nan
23303;BME280;11820;48.738;9.092;2023-02-04T11:01:10;97967.47;;;7.04;nan
23303;BME280;11820;48.738;9.092;2023-02-04T11:03:37;97974.53;;;7.11;nan
23303;BME280;11820;48.738;9.092;2023-02-04T11:06:08;97972.91;;;7.10;nan
23303;BME280;11820;48.738;9.092;2023-02-04T11:08:38;97984.50;;;7.05;nan
23303;BME280;11820;48.738;9.092;2023-02-04T11:11:08;97982.47;;;6.99;nan
23303;BME280;11820;48.738;9.092;2023-02-04T11:26:44;97981.00;;;7.06;nan
23303;BME280;11820;48.738;9.092;2023-02-04T11:37:05;97986.63;;;6.90;nan
23303;BME280;11820;48.738;9.092;2023-02-04T11:39:37;97976.63;;;6.97;nan
23303;BME280;11820;48.738;9.092;2023-02-04T11:42:09;97987.03;;;6.95;nan
23303;BME280;11820;48.738;9.092;2023-02-04T11:44:39;97979.16;;;6.87;nan
23303;BME280;11820;48.738;9.092;2023-02-04T11:47:06;97981.56;;;6.79;nan
23303;BME280;11820;48.738;9.092;2023-02-04T11:49:34;97987.13;;;6.84;nan
23303;BME280;11820;48.738;9.092;2023-02-04T11:52:05;97989.88;;;6.92;nan
23303;BME280;11820;48.738;9.092;2023-02-04T11:54:34;97988.09;;;6.83;nan
23303;BME280;11820;48.738;9.092;2023-02-04T11:57:00;97983.38;;;6.88;nan
23303;BME280;11820;48.738;9.092;2023-02-04T11:59:26;97984.41;;;7.06;nan
23303;BME280;11820;48.738;9.092;2023-02-04T12:02:02;97989.75;;;7.24;nan
23303;BME280;11820;48.738;9.092;2023-02-04T12:04:28;97989.59;;;7.25;nan
23303;BME280;11820;48.738;9.092;2023-02-04T12:07:02;97981.94;;;7.44;nan
23303;BME280;11820;48.738;9.092;2023-02-04T12:09:32;97985.19;;;7.46;nan
23303;BME280;11820;48.738;9.092;2023-02-04T12:11:59;97987.69;;;7.67;nan
23303;BME280;11820;48.738;9.092;2023-02-04T12:16:58;97982.69;;;9.06;nan
23303;BME280;11820;48.738;9.092;2023-02-04T12:19:23;97986.91;;;8.61;nan
23303;BME280;11820;48.738;9.092;2023-02-04T12:21:49;97978.91;;;8.45;nan
23303;BME280;11820;48.738;9.092;2023-02-04T12:24:14;97988.25;;;8.65;nan
23303;BME280;11820;48.738;9.092;2023-02-04T12:26:39;97990.56;;;8.58;nan
23303;BME280;11820;48.738;9.092;2023-02-04T12:29:05;97986.47;;;8.65;nan
23303;BME280;11820;48.738;9.092;2023-02-04T12:31:31;97993.81;;;8.60;nan
23303;BME280;11820;48.738;9.092;2023-02-04T12:33:57;97988.22;;;8.84;nan
23303;BME280;11820;48.738;9.092;2023-02-04T12:36:22;97988.88;;;8.86;nan
23303;BME280;11820;48.738;9.092;2023-02-04T12:38:48;97989.47;;;8.61;nan
23303;BME280;11820;48.738;9.092;2023-02-04T12:41:13;97984.53;;;8.77;nan
23303;BME280;11820;48.738;9.092;2023-02-04T12:43:39;97993.38;;;8.84;nan
23303;BME280;11820;48.738;9.092;2023-02-04T12:46:04;97991.97;;;8.43;nan
23303;BME280;11820;48.738;9.092;2023-02-04T12:48:30;98001.44;;;8.24;nan
23303;BME280;11820;48.738;9.092;2023-02-04T12:50:55;97993.94;;;8.02;nan
23303;BME280;11820;48.738;9.092;2023-02-04T12:53:20;97995.56;;;8.12;nan
23303;BME280;11820;48.738;9.092;2023-02-04T12:55:46;97994.34;;;7.88;nan
23303;BME280;11820;48.738;9.092;2023-02-04T12:58:12;97999.63;;;7.77;nan
23303;BME280;11820;48.738;9.092;2023-02-04T13:00:37;98002.59;;;7.63;nan
23303;BME280;11820;48.738;9.092;2023-02-04T13:03:02;98004.78;;;7.68;nan
23303;BME280;11820;48.738;9.092;2023-02-04T13:05:29;97998.94;;;7.75;nan
23303;BME280;11820;48.738;9.092;2023-02-04T13:07:55;97991.25;;;7.94;nan
23303;BME280;11820;48.738;9.092;2023-02-04T13:10:20;97999.28;;;8.19;nan
23303;BME280;11820;48.738;9.092;2023-02-04T13:12:48;97993.88;;;8.32;nan
23303;BME280;11820;48.738;9.092;2023-02-04T13:15:13;97984.75;;;8.09;nan
23303;BME280;11820;48.738;9.092;2023-02-04T13:17:38;97993.44;;;8.08;nan
23303;BME280;11820;48.738;9.092;2023-02-04T13:20:04;97996.13;;;8.16;nan
23303;BME280;11820;48.738;9.092;2023-02-04T13:22:30;97997.75;;;7.98;nan
23303;BME280;11820;48.738;9.092;2023-02-04T13:24:55;97993.81;;;7.94;nan
23303;BME280;11820;48.738;9.092;2023-02-04T13:27:20;97994.78;;;8.02;nan
23303;BME280;11820;48.738;9.092;2023-02-04T13:29:46;97993.00;;;7.84;nan
23303;BME280;11820;48.738;9.092;2023-02-04T13:32:11;97994.75;;;7.84;nan
23303;BME280;11820;48.738;9.092;2023-02-04T13:34:36;97999.88;;;7.74;nan
23303;BME280;11820;48.738;9.092;2023-02-04T13:37:02;97996.63;;;7.53;nan
23303;BME280;11820;48.738;9.092;2023-02-04T13:39:27;97994.53;;;7.47;nan
23303;BME280;11820;48.738;9.092;2023-02-04T13:41:52;97999.59;;;7.58;nan
23303;BME280;11820;48.738;9.092;2023-02-04T13:44:18;97994.03;;;7.53;nan
23303;BME280;11820;48.738;9.092;2023-02-04T13:46:43;97994.88;;;7.63;nan
23303;BME280;11820;48.738;9.092;2023-02-04T13:49:09;98007.47;;;7.76;nan
23303;BME280;11820;48.738;9.092;2023-02-04T13:51:34;98008.06;;;8.07;nan
23303;BME280;11820;48.738;9.092;2023-02-04T13:53:59;98009.19;;;8.33;nan
23303;BME280;11820;48.738;9.092;2023-02-04T13:56:26;98014.59;;;8.40;nan